createdAt,value
2017-07-01T00:00:17.102Z,0
2017-07-01T00:01:25.189Z,0
2017-07-01T00:02:33.277Z,0
2017-07-01T00:03:41.363Z,0
2017-07-01T00:04:49.454Z,0
2017-07-01T00:05:57.541Z,0
2017-07-01T00:07:05.625Z,0
2017-07-01T00:08:13.714Z,0
2017-07-01T00:09:21.800Z,0
2017-07-01T00:10:29.889Z,0
2017-07-01T00:11:37.974Z,0
2017-07-01T00:12:46.078Z,0
2017-07-01T00:13:54.169Z,0
2017-07-01T00:15:02.235Z,0
2017-07-01T00:16:10.324Z,0
2017-07-01T00:17:18.411Z,0
2017-07-01T00:18:26.498Z,0
2017-07-01T00:19:34.588Z,0
2017-07-01T00:20:42.674Z,0
2017-07-01T00:21:50.759Z,0
2017-07-01T00:22:58.847Z,0
2017-07-01T00:24:06.936Z,0
2017-07-01T00:25:15.022Z,0
2017-07-01T00:26:23.119Z,0
2017-07-01T00:27:31.255Z,0
2017-07-01T00:28:39.285Z,0
2017-07-01T00:29:47.370Z,0
2017-07-01T00:30:55.459Z,0
2017-07-01T00:32:03.548Z,0
2017-07-01T00:33:11.634Z,0
2017-07-01T00:34:19.719Z,0
2017-07-01T00:35:27.808Z,0
2017-07-01T00:36:35.896Z,0
2017-07-01T00:37:43.981Z,0
2017-07-01T00:38:52.069Z,0
2017-07-01T00:40:00.156Z,0
2017-07-01T00:41:08.245Z,0
2017-07-01T00:42:16.333Z,0
2017-07-01T00:43:24.443Z,0
2017-07-01T00:44:32.507Z,0
2017-07-01T00:45:40.593Z,0
2017-07-01T00:46:48.682Z,0
2017-07-01T00:47:56.767Z,0
2017-07-01T00:49:04.855Z,0
2017-07-01T00:50:12.941Z,0
2017-07-01T00:51:21.030Z,0
2017-07-01T00:52:29.118Z,0
2017-07-01T00:53:37.206Z,0
2017-07-01T00:54:45.317Z,0
2017-07-01T00:55:53.381Z,0
2017-07-01T00:57:01.467Z,0
2017-07-01T00:58:09.553Z,0
2017-07-01T00:59:17.640Z,0
2017-07-01T01:00:25.728Z,0
2017-07-01T01:01:33.814Z,0
2017-07-01T01:02:41.902Z,0
2017-07-01T01:03:49.989Z,0
2017-07-01T01:04:58.134Z,0
2017-07-01T01:06:06.175Z,0
2017-07-01T01:07:14.253Z,0
2017-07-01T01:08:22.340Z,0
2017-07-01T01:09:30.428Z,0
2017-07-01T01:10:38.517Z,0
2017-07-01T01:11:46.601Z,0
2017-07-01T01:12:54.722Z,0
2017-07-01T01:14:02.775Z,0
2017-07-01T01:15:10.864Z,0
2017-07-01T01:16:18.951Z,0
2017-07-01T01:17:27.037Z,0
2017-07-01T01:18:35.123Z,0
2017-07-01T01:19:43.211Z,0
2017-07-01T01:20:51.300Z,0
2017-07-01T01:21:59.410Z,0
2017-07-01T01:23:07.475Z,0
2017-07-01T01:24:15.561Z,0
2017-07-01T01:25:23.648Z,0
2017-07-01T01:26:31.737Z,0
2017-07-01T01:27:39.821Z,0
2017-07-01T01:28:47.911Z,0
2017-07-01T01:29:56.020Z,0
2017-07-01T01:31:04.084Z,0
2017-07-01T01:32:12.169Z,0
2017-07-01T01:33:20.378Z,0
2017-07-01T01:34:28.343Z,0
2017-07-01T01:35:36.434Z,0
2017-07-01T01:36:44.545Z,0
2017-07-01T01:37:52.607Z,0
2017-07-01T01:39:00.691Z,0
2017-07-01T01:40:08.780Z,0
2017-07-01T01:41:16.867Z,0
2017-07-01T01:42:24.954Z,0
2017-07-01T01:43:33.043Z,0
2017-07-01T01:44:41.135Z,0
2017-07-01T01:45:49.225Z,0
2017-07-01T01:46:57.309Z,0
2017-07-01T01:48:05.392Z,0
2017-07-01T01:49:13.478Z,0
2017-07-01T01:50:21.569Z,0
2017-07-01T01:51:29.652Z,0
2017-07-01T01:52:37.741Z,0
2017-07-01T01:53:45.827Z,0
2017-07-01T01:54:53.913Z,0
2017-07-01T01:56:02.004Z,0
2017-07-01T01:57:10.210Z,0
2017-07-01T01:58:18.175Z,0
2017-07-01T01:59:26.264Z,0
2017-07-01T02:00:34.352Z,0
2017-07-01T02:01:42.438Z,0
2017-07-01T02:02:50.528Z,0
2017-07-01T02:03:58.701Z,0
2017-07-01T02:05:06.700Z,0
2017-07-01T02:06:14.788Z,0
2017-07-01T02:07:22.875Z,0
2017-07-01T02:08:30.962Z,0
2017-07-01T02:09:39.049Z,0
2017-07-01T02:10:47.137Z,0
2017-07-01T02:11:55.225Z,0
2017-07-01T02:13:03.313Z,0
2017-07-01T02:14:11.398Z,0
2017-07-01T02:15:19.484Z,0
2017-07-01T02:16:27.572Z,0
2017-07-01T02:17:35.658Z,0
2017-07-01T02:18:43.745Z,0
2017-07-01T02:19:51.832Z,0
2017-07-01T02:21:00.003Z,0
2017-07-01T02:22:08.009Z,0
2017-07-01T02:23:16.095Z,0
2017-07-01T02:24:24.184Z,0
2017-07-01T02:25:32.295Z,0
2017-07-01T02:26:40.357Z,0
2017-07-01T02:27:48.443Z,0
2017-07-01T02:28:56.528Z,0
2017-07-01T02:30:04.616Z,0
2017-07-01T02:31:12.702Z,0
2017-07-01T02:32:20.790Z,0
2017-07-01T02:33:28.878Z,0
2017-07-01T02:34:36.966Z,0
2017-07-01T02:36:53.142Z,0
2017-07-01T02:38:01.255Z,0
2017-07-01T02:39:09.311Z,0
2017-07-01T02:40:17.400Z,0
2017-07-01T02:41:25.487Z,0
2017-07-01T02:42:33.574Z,0
2017-07-01T02:43:41.662Z,0
2017-07-01T02:44:49.749Z,0
2017-07-01T02:45:57.837Z,0
2017-07-01T02:47:05.922Z,0
2017-07-01T02:48:14.010Z,0
2017-07-01T02:49:22.121Z,0
2017-07-01T02:50:30.182Z,0
2017-07-01T02:51:38.271Z,0
2017-07-01T02:52:46.359Z,0
2017-07-01T02:53:54.447Z,0
2017-07-01T02:55:02.630Z,0
2017-07-01T02:56:10.620Z,0
2017-07-01T02:57:18.707Z,0
2017-07-01T02:58:26.796Z,0
2017-07-01T02:59:34.879Z,0
2017-07-01T03:00:42.968Z,0
2017-07-01T03:01:51.080Z,0
2017-07-01T03:02:59.143Z,0
2017-07-01T03:04:07.256Z,0
2017-07-01T03:05:15.318Z,0
2017-07-01T03:06:23.414Z,0
2017-07-01T03:07:31.525Z,0
2017-07-01T03:08:39.589Z,0
2017-07-01T03:09:47.677Z,0
2017-07-01T03:10:55.763Z,0
2017-07-01T03:12:03.852Z,0
2017-07-01T03:13:11.939Z,0
2017-07-01T03:14:20.025Z,0
2017-07-01T03:15:28.117Z,0
2017-07-01T03:16:36.198Z,0
2017-07-01T03:17:44.284Z,0
2017-07-01T03:18:52.376Z,0
2017-07-01T03:20:00.731Z,0
2017-07-01T03:21:08.549Z,0
2017-07-01T03:22:16.635Z,0
2017-07-01T03:23:24.724Z,0
2017-07-01T03:24:32.807Z,0
2017-07-01T03:25:40.893Z,0
2017-07-01T03:26:48.982Z,0
2017-07-01T03:27:57.069Z,0
2017-07-01T03:29:05.157Z,0
2017-07-01T03:30:13.244Z,0
2017-07-01T03:31:21.388Z,0
2017-07-01T03:32:29.418Z,0
2017-07-01T03:33:37.503Z,0
2017-07-01T03:34:45.590Z,0
2017-07-01T03:35:53.675Z,0
2017-07-01T03:37:01.766Z,0
2017-07-01T03:38:09.852Z,0
2017-07-01T03:39:17.939Z,0
2017-07-01T03:40:26.026Z,0
2017-07-01T03:41:34.214Z,0
2017-07-01T03:42:42.224Z,0
2017-07-01T03:43:50.288Z,4
2017-07-01T03:44:58.374Z,4
2017-07-01T03:46:06.462Z,0
2017-07-01T03:47:14.549Z,0
2017-07-01T03:48:22.634Z,0
2017-07-01T03:49:30.723Z,0
2017-07-01T03:50:38.812Z,0
2017-07-01T03:51:46.899Z,0
2017-07-01T03:52:54.984Z,4
2017-07-01T03:54:03.073Z,0
2017-07-01T03:55:11.159Z,0
2017-07-01T03:56:19.246Z,0
2017-07-01T03:57:27.334Z,4
2017-07-01T03:58:35.511Z,4
2017-07-01T03:59:43.507Z,4
2017-07-01T04:00:51.595Z,0
2017-07-01T04:01:59.682Z,0
2017-07-01T04:03:07.771Z,4
2017-07-01T04:04:15.856Z,4
2017-07-01T04:05:23.942Z,0
2017-07-01T04:06:32.028Z,4
2017-07-01T04:07:40.118Z,0
2017-07-01T04:08:48.201Z,0
2017-07-01T04:09:56.289Z,0
2017-07-01T04:11:04.377Z,4
2017-07-01T04:12:12.465Z,0
2017-07-01T04:13:20.632Z,0
2017-07-01T04:14:28.637Z,0
2017-07-01T04:15:36.725Z,0
2017-07-01T04:16:44.810Z,0
2017-07-01T04:17:52.897Z,0
2017-07-01T04:19:00.984Z,0
2017-07-01T04:20:09.073Z,4
2017-07-01T04:21:17.159Z,4
2017-07-01T04:22:25.246Z,0
2017-07-01T04:23:33.335Z,0
2017-07-01T04:24:41.420Z,4
2017-07-01T04:25:49.816Z,4
2017-07-01T04:26:57.593Z,4
2017-07-01T04:28:05.680Z,4
2017-07-01T04:29:13.768Z,4
2017-07-01T04:30:21.853Z,4
2017-07-01T04:31:29.966Z,4
2017-07-01T04:32:38.029Z,4
2017-07-01T04:33:46.469Z,4
2017-07-01T04:34:54.206Z,4
2017-07-01T04:36:02.291Z,4
2017-07-01T04:37:10.379Z,4
2017-07-01T04:38:18.464Z,0
2017-07-01T04:39:26.553Z,4
2017-07-01T04:40:34.647Z,4
2017-07-01T04:41:42.808Z,4
2017-07-01T04:42:50.819Z,0
2017-07-01T04:43:58.905Z,4
2017-07-01T04:45:06.990Z,4
2017-07-01T04:46:15.102Z,4
2017-07-01T04:47:23.164Z,4
2017-07-01T04:48:31.251Z,8
2017-07-01T04:49:39.342Z,4
2017-07-01T04:50:47.425Z,4
2017-07-01T04:51:55.514Z,4
2017-07-01T04:53:03.599Z,8
2017-07-01T04:54:11.687Z,4
2017-07-01T04:55:19.771Z,4
2017-07-01T04:56:27.859Z,8
2017-07-01T04:57:35.945Z,4
2017-07-01T04:58:44.057Z,4
2017-07-01T04:59:52.119Z,4
2017-07-01T05:01:00.216Z,8
2017-07-01T05:02:08.296Z,4
2017-07-01T05:03:16.390Z,8
2017-07-01T05:04:24.476Z,4
2017-07-01T05:05:32.563Z,8
2017-07-01T05:06:40.650Z,8
2017-07-01T05:07:48.737Z,8
2017-07-01T05:08:56.824Z,8
2017-07-01T05:10:04.912Z,8
2017-07-01T05:11:13.207Z,8
2017-07-01T05:12:21.085Z,8
2017-07-01T05:13:29.423Z,8
2017-07-01T05:14:37.257Z,8
2017-07-01T05:15:45.343Z,4
2017-07-01T05:16:53.434Z,4
2017-07-01T05:18:01.519Z,8
2017-07-01T05:19:09.608Z,8
2017-07-01T05:20:17.696Z,8
2017-07-01T05:21:25.781Z,8
2017-07-01T05:22:33.868Z,8
2017-07-01T05:23:41.953Z,12
2017-07-01T05:24:50.067Z,8
2017-07-01T05:25:58.130Z,8
2017-07-01T05:27:06.457Z,8
2017-07-01T05:28:14.684Z,8
2017-07-01T05:29:22.389Z,8
2017-07-01T05:30:30.474Z,8
2017-07-01T05:31:38.586Z,12
2017-07-01T05:32:46.645Z,8
2017-07-01T05:33:54.733Z,8
2017-07-01T05:35:02.819Z,8
2017-07-01T05:36:10.908Z,8
2017-07-01T05:37:18.995Z,8
2017-07-01T05:38:27.083Z,8
2017-07-01T05:39:35.170Z,8
2017-07-01T05:40:43.312Z,8
2017-07-01T05:41:51.340Z,8
2017-07-01T05:42:59.428Z,8
2017-07-01T05:44:07.516Z,8
2017-07-01T05:45:15.601Z,8
2017-07-01T05:46:23.690Z,12
2017-07-01T05:47:31.775Z,8
2017-07-01T05:48:39.865Z,12
2017-07-01T05:49:47.950Z,8
2017-07-01T05:50:56.035Z,8
2017-07-01T05:52:04.123Z,8
2017-07-01T05:53:12.210Z,8
2017-07-01T05:54:20.297Z,4
2017-07-01T05:55:28.384Z,12
2017-07-01T05:56:37.607Z,12
2017-07-01T05:57:44.557Z,8
2017-07-01T05:58:52.646Z,8
2017-07-01T06:00:00.824Z,12
2017-07-01T06:01:08.818Z,8
2017-07-01T06:02:16.902Z,8
2017-07-01T06:03:24.990Z,12
2017-07-01T06:04:33.076Z,8
2017-07-01T06:05:41.163Z,12
2017-07-01T06:06:49.251Z,12
2017-07-01T06:07:57.337Z,12
2017-07-01T06:09:05.434Z,12
2017-07-01T06:10:13.523Z,8
2017-07-01T06:11:21.608Z,12
2017-07-01T06:12:29.696Z,8
2017-07-01T06:13:37.783Z,8
2017-07-01T06:14:45.867Z,12
2017-07-01T06:15:53.955Z,8
2017-07-01T06:17:02.044Z,8
2017-07-01T06:18:10.138Z,16
2017-07-01T06:19:18.214Z,16
2017-07-01T06:20:26.302Z,20
2017-07-01T06:21:34.389Z,8
2017-07-01T06:22:42.476Z,12
2017-07-01T06:23:50.563Z,12
2017-07-01T06:24:58.650Z,16
2017-07-01T06:26:06.739Z,24
2017-07-01T06:27:14.824Z,28
2017-07-01T06:28:22.935Z,16
2017-07-01T06:29:30.996Z,16
2017-07-01T06:30:39.108Z,12
2017-07-01T06:31:47.170Z,12
2017-07-01T06:32:55.283Z,12
2017-07-01T06:34:03.344Z,8
2017-07-01T06:42:32.384Z,8
2017-07-01T06:43:40.471Z,12
2017-07-01T06:44:48.559Z,8
2017-07-01T06:45:56.640Z,20
2017-07-01T06:47:04.727Z,16
2017-07-01T06:48:12.819Z,12
2017-07-01T06:49:20.911Z,20
2017-07-01T06:50:29.017Z,20
2017-07-01T06:51:37.084Z,20
2017-07-01T06:52:45.195Z,32
2017-07-01T06:53:53.257Z,36
2017-07-01T06:55:01.414Z,20
2017-07-01T06:56:09.472Z,12
2017-07-01T06:57:17.518Z,12
2017-07-01T06:58:25.908Z,24
2017-07-01T06:59:33.701Z,16
2017-07-01T07:00:41.780Z,16
2017-07-01T07:01:50.574Z,20
2017-07-01T07:02:57.961Z,56
2017-07-01T07:04:06.049Z,16
2017-07-01T07:05:14.135Z,20
2017-07-01T07:06:22.222Z,20
2017-07-01T07:07:30.388Z,16
2017-07-01T07:08:38.398Z,16
2017-07-01T07:09:46.484Z,16
2017-07-01T07:10:54.570Z,16
2017-07-01T07:12:02.657Z,16
2017-07-01T07:13:10.742Z,12
2017-07-01T07:14:18.953Z,16
2017-07-01T07:15:26.920Z,16
2017-07-01T07:16:35.671Z,16
2017-07-01T07:17:43.656Z,16
2017-07-01T07:18:51.177Z,16
2017-07-01T07:19:59.310Z,16
2017-07-01T07:21:07.351Z,16
2017-07-01T07:22:15.460Z,16
2017-07-01T07:23:23.524Z,16
2017-07-01T07:24:31.624Z,40
2017-07-01T07:25:39.697Z,16
2017-07-01T07:26:47.783Z,12
2017-07-01T07:27:55.871Z,16
2017-07-01T07:29:03.959Z,56
2017-07-01T07:30:12.047Z,20
2017-07-01T07:31:20.130Z,24
2017-07-01T07:32:28.217Z,52
2017-07-01T07:33:36.306Z,24
2017-07-01T07:34:44.416Z,20
2017-07-01T07:35:52.477Z,24
2017-07-01T07:37:00.563Z,20
2017-07-01T07:38:08.653Z,32
2017-07-01T07:39:16.737Z,16
2017-07-01T07:40:24.824Z,16
2017-07-01T07:41:32.911Z,16
2017-07-01T07:42:40.997Z,52
2017-07-01T07:43:49.083Z,20
2017-07-01T07:44:57.172Z,16
2017-07-01T07:46:05.256Z,44
2017-07-01T07:47:13.345Z,20
2017-07-01T07:48:21.431Z,52
2017-07-01T07:49:29.542Z,56
2017-07-01T07:50:37.604Z,32
2017-07-01T07:51:45.689Z,24
2017-07-01T07:52:53.847Z,56
2017-07-01T07:54:01.864Z,36
2017-07-01T07:55:09.951Z,20
2017-07-01T07:56:18.038Z,52
2017-07-01T07:57:26.129Z,20
2017-07-01T07:58:34.292Z,16
2017-07-01T07:59:42.300Z,16
2017-07-01T08:00:50.385Z,12
2017-07-01T08:01:58.477Z,20
2017-07-01T08:03:06.573Z,12
2017-07-01T08:04:14.660Z,20
2017-07-01T08:05:22.749Z,20
2017-07-01T08:06:30.832Z,20
2017-07-01T08:07:38.919Z,20
2017-07-01T08:08:47.004Z,12
2017-07-01T08:09:55.091Z,24
2017-07-01T08:11:03.178Z,28
2017-07-01T08:12:11.267Z,16
2017-07-01T08:13:19.474Z,16
2017-07-01T08:14:27.464Z,32
2017-07-01T08:15:35.560Z,40
2017-07-01T08:16:43.614Z,24
2017-07-01T08:17:51.698Z,20
2017-07-01T08:18:59.791Z,32
2017-07-01T08:20:07.881Z,24
2017-07-01T08:21:15.965Z,24
2017-07-01T08:22:24.054Z,20
2017-07-01T08:23:32.140Z,48
2017-07-01T08:24:40.227Z,16
2017-07-01T08:25:48.315Z,12
2017-07-01T08:26:56.398Z,16
2017-07-01T08:28:04.484Z,28
2017-07-01T08:29:12.573Z,16
2017-07-01T08:30:20.659Z,20
2017-07-01T08:31:28.745Z,20
2017-07-01T08:32:36.923Z,20
2017-07-01T08:33:44.920Z,16
2017-07-01T08:34:53.007Z,44
2017-07-01T08:36:01.092Z,56
2017-07-01T08:37:09.178Z,48
2017-07-01T08:38:17.267Z,36
2017-07-01T08:39:25.378Z,28
2017-07-01T08:40:33.441Z,24
2017-07-01T08:41:41.527Z,52
2017-07-01T08:42:49.637Z,44
2017-07-01T08:43:57.700Z,28
2017-07-01T08:45:05.785Z,24
2017-07-01T08:46:13.872Z,24
2017-07-01T08:47:21.961Z,20
2017-07-01T08:48:30.048Z,24
2017-07-01T08:49:38.134Z,24
2017-07-01T08:50:46.224Z,24
2017-07-01T08:51:54.314Z,24
2017-07-01T08:53:02.397Z,20
2017-07-01T08:54:10.483Z,20
2017-07-01T08:55:18.569Z,16
2017-07-01T08:56:26.654Z,36
2017-07-01T08:57:34.758Z,36
2017-07-01T08:58:42.828Z,44
2017-07-01T08:59:50.915Z,36
2017-07-01T09:00:59.002Z,40
2017-07-01T09:02:07.089Z,36
2017-07-01T09:03:15.175Z,20
2017-07-01T09:04:23.262Z,20
2017-07-01T09:05:31.346Z,16
2017-07-01T09:06:39.435Z,16
2017-07-01T09:07:47.518Z,16
2017-07-01T09:08:55.630Z,20
2017-07-01T09:10:03.691Z,16
2017-07-01T09:11:11.782Z,20
2017-07-01T09:12:19.866Z,12
2017-07-01T09:13:27.954Z,12
2017-07-01T09:14:36.039Z,12
2017-07-01T09:15:44.123Z,16
2017-07-01T09:16:52.211Z,36
2017-07-01T09:18:00.299Z,28
2017-07-01T09:19:08.383Z,36
2017-07-01T09:20:16.498Z,40
2017-07-01T09:21:24.561Z,32
2017-07-01T09:22:32.646Z,20
2017-07-01T09:23:40.732Z,32
2017-07-01T09:24:48.819Z,16
2017-07-01T09:25:56.906Z,16
2017-07-01T09:27:04.997Z,32
2017-07-01T09:28:13.081Z,12
2017-07-01T09:29:21.167Z,28
2017-07-01T09:30:29.254Z,32
2017-07-01T09:31:37.341Z,16
2017-07-01T09:32:45.430Z,20
2017-07-01T09:33:53.513Z,20
2017-07-01T09:35:01.599Z,16
2017-07-01T09:36:09.685Z,32
2017-07-01T09:37:17.774Z,28
2017-07-01T09:38:25.864Z,28
2017-07-01T09:39:33.947Z,28
2017-07-01T09:40:42.034Z,32
2017-07-01T09:41:50.121Z,28
2017-07-01T09:42:58.206Z,20
2017-07-01T09:44:06.353Z,16
2017-07-01T09:45:14.433Z,36
2017-07-01T09:46:22.470Z,28
2017-07-01T09:47:30.616Z,24
2017-07-01T09:48:38.646Z,20
2017-07-01T09:49:47.238Z,28
2017-07-01T09:50:55.196Z,44
2017-07-01T09:52:02.947Z,44
2017-07-01T09:53:10.994Z,24
2017-07-01T09:54:19.078Z,20
2017-07-01T09:55:27.165Z,32
2017-07-01T09:56:35.253Z,44
2017-07-01T09:57:43.342Z,20
2017-07-01T09:58:51.435Z,20
2017-07-01T09:59:59.522Z,40
2017-07-01T10:01:07.614Z,20
2017-07-01T10:02:15.702Z,40
2017-07-01T10:03:23.796Z,44
2017-07-01T10:04:31.881Z,40
2017-07-01T10:05:39.967Z,12
2017-07-01T10:06:48.063Z,12
2017-07-01T10:07:56.150Z,16
2017-07-01T10:09:04.242Z,16
2017-07-01T10:10:12.331Z,16
2017-07-01T10:11:20.417Z,16
2017-07-01T10:12:28.528Z,36
2017-07-01T10:13:36.593Z,40
2017-07-01T10:14:44.686Z,40
2017-07-01T10:15:52.774Z,32
2017-07-01T10:17:00.859Z,44
2017-07-01T10:18:08.945Z,36
2017-07-01T10:19:17.032Z,36
2017-07-01T10:20:25.126Z,36
2017-07-01T10:21:33.211Z,36
2017-07-01T10:22:41.481Z,36
2017-07-01T10:23:49.389Z,40
2017-07-01T10:24:57.592Z,16
2017-07-01T10:26:05.560Z,28
2017-07-01T10:27:13.649Z,28
2017-07-01T10:28:21.735Z,20
2017-07-01T10:29:29.821Z,24
2017-07-01T10:30:37.913Z,24
2017-07-01T10:31:46.005Z,48
2017-07-01T10:32:54.092Z,44
2017-07-01T10:34:02.177Z,32
2017-07-01T10:35:10.264Z,20
2017-07-01T10:36:18.351Z,12
2017-07-01T10:37:26.440Z,16
2017-07-01T10:38:34.527Z,16
2017-07-01T10:39:42.615Z,28
2017-07-01T10:40:50.700Z,28
2017-07-01T10:41:58.787Z,20
2017-07-01T10:43:06.876Z,24
2017-07-01T10:44:14.961Z,36
2017-07-01T10:45:23.049Z,32
2017-07-01T10:46:31.134Z,36
2017-07-01T10:47:39.223Z,32
2017-07-01T10:48:47.339Z,36
2017-07-01T10:49:55.399Z,36
2017-07-01T10:51:03.486Z,16
2017-07-01T10:52:11.573Z,20
2017-07-01T10:53:19.660Z,20
2017-07-01T10:54:27.747Z,36
2017-07-01T10:55:35.834Z,20
2017-07-01T10:56:43.922Z,20
2017-07-01T10:57:52.009Z,16
2017-07-01T10:59:00.101Z,20
2017-07-01T11:00:08.184Z,12
2017-07-01T11:01:16.274Z,16
2017-07-01T11:02:24.360Z,16
2017-07-01T11:03:32.446Z,12
2017-07-01T11:04:40.534Z,12
2017-07-01T11:05:48.623Z,12
2017-07-01T11:06:56.708Z,16
2017-07-01T11:08:04.797Z,12
2017-07-01T11:09:12.882Z,16
2017-07-01T11:10:20.971Z,16
2017-07-01T11:11:29.058Z,16
2017-07-01T11:12:37.142Z,16
2017-07-01T11:13:45.239Z,12
2017-07-01T11:14:53.329Z,12
2017-07-01T11:16:01.416Z,12
2017-07-01T11:17:09.503Z,16
2017-07-01T11:18:17.591Z,12
2017-07-01T11:19:25.676Z,16
2017-07-01T11:20:33.806Z,12
2017-07-01T11:21:41.896Z,12
2017-07-01T11:22:49.936Z,12
2017-07-01T11:23:58.027Z,12
2017-07-01T11:25:06.136Z,12
2017-07-01T11:26:14.198Z,12
2017-07-01T11:27:22.286Z,12
2017-07-01T11:28:30.371Z,12
2017-07-01T11:29:38.460Z,16
2017-07-01T11:30:46.556Z,16
2017-07-01T11:31:54.643Z,16
2017-07-01T11:33:02.730Z,20
2017-07-01T11:34:10.817Z,20
2017-07-01T11:35:18.904Z,20
2017-07-01T11:36:26.991Z,20
2017-07-01T11:37:35.076Z,20
2017-07-01T11:38:43.162Z,20
2017-07-01T11:39:51.250Z,16
2017-07-01T11:40:59.336Z,16
2017-07-01T11:42:07.426Z,16
2017-07-01T11:43:15.513Z,12
2017-07-01T11:44:23.600Z,12
2017-07-01T11:45:31.687Z,12
2017-07-01T11:46:39.770Z,12
2017-07-01T11:47:47.862Z,16
2017-07-01T11:48:55.944Z,12
2017-07-01T11:50:04.032Z,20
2017-07-01T11:51:12.120Z,20
2017-07-01T11:52:20.208Z,24
2017-07-01T11:53:28.296Z,24
2017-07-01T11:54:36.407Z,24
2017-07-01T11:55:44.528Z,24
2017-07-01T11:56:52.560Z,24
2017-07-01T11:58:00.642Z,36
2017-07-01T11:59:08.729Z,24
2017-07-01T12:00:16.815Z,24
2017-07-01T12:01:24.900Z,32
2017-07-01T12:02:32.989Z,28
2017-07-01T12:03:41.076Z,28
2017-07-01T12:04:49.164Z,32
2017-07-01T12:05:57.249Z,32
2017-07-01T12:07:05.334Z,24
2017-07-01T12:08:13.421Z,24
2017-07-01T12:09:21.509Z,20
2017-07-01T12:10:29.622Z,24
2017-07-01T12:11:37.683Z,24
2017-07-01T12:12:45.771Z,28
2017-07-01T12:13:53.857Z,24
2017-07-01T12:15:01.945Z,28
2017-07-01T12:16:10.034Z,32
2017-07-01T12:17:18.118Z,32
2017-07-01T12:18:26.205Z,24
2017-07-01T12:19:34.292Z,24
2017-07-01T12:20:42.378Z,24
2017-07-01T12:21:50.467Z,28
2017-07-01T12:22:58.580Z,24
2017-07-01T12:24:06.639Z,24
2017-07-01T12:25:14.728Z,24
2017-07-01T12:26:22.813Z,20
2017-07-01T12:27:30.900Z,20
2017-07-01T12:28:38.985Z,24
2017-07-01T12:29:47.074Z,20
2017-07-01T12:30:55.159Z,20
2017-07-01T12:32:03.247Z,24
2017-07-01T12:33:11.335Z,24
2017-07-01T12:34:19.423Z,20
2017-07-01T12:35:27.512Z,24
2017-07-01T12:36:35.595Z,24
2017-07-01T12:37:43.683Z,24
2017-07-01T12:38:51.769Z,20
2017-07-01T12:39:59.855Z,24
2017-07-01T12:41:07.945Z,24
2017-07-01T12:42:16.029Z,24
2017-07-01T12:43:24.117Z,32
2017-07-01T12:44:32.209Z,36
2017-07-01T12:45:40.291Z,28
2017-07-01T12:46:48.425Z,32
2017-07-01T12:47:56.519Z,20
2017-07-01T12:49:04.552Z,28
2017-07-01T12:50:12.638Z,20
2017-07-01T12:51:20.725Z,16
2017-07-01T12:52:28.878Z,16
2017-07-01T12:53:36.900Z,16
2017-07-01T12:54:44.988Z,12
2017-07-01T12:55:53.073Z,12
2017-07-01T12:57:01.159Z,12
2017-07-01T12:58:09.246Z,12
2017-07-01T12:59:17.342Z,16
2017-07-01T13:00:25.468Z,12
2017-07-01T13:01:33.506Z,16
2017-07-01T13:02:41.594Z,20
2017-07-01T13:03:49.682Z,24
2017-07-01T13:04:57.767Z,24
2017-07-01T13:06:05.854Z,24
2017-07-01T13:07:13.941Z,24
2017-07-01T13:08:22.028Z,24
2017-07-01T13:09:30.135Z,28
2017-07-01T13:10:38.202Z,28
2017-07-01T13:11:46.288Z,24
2017-07-01T13:12:54.374Z,24
2017-07-01T13:14:02.488Z,24
2017-07-01T13:15:10.550Z,24
2017-07-01T13:16:18.636Z,24
2017-07-01T13:17:26.723Z,24
2017-07-01T13:18:34.833Z,24
2017-07-01T13:19:42.951Z,20
2017-07-01T13:20:51.005Z,20
2017-07-01T13:21:59.092Z,20
2017-07-01T13:23:07.177Z,20
2017-07-01T13:24:15.264Z,20
2017-07-01T13:25:23.363Z,20
2017-07-01T13:26:31.498Z,20
2017-07-01T13:27:39.527Z,20
2017-07-01T13:28:47.613Z,16
2017-07-01T13:29:55.726Z,16
2017-07-01T13:31:03.788Z,16
2017-07-01T13:32:11.873Z,16
2017-07-01T13:33:19.960Z,16
2017-07-01T13:34:28.047Z,16
2017-07-01T13:35:36.134Z,16
2017-07-01T13:36:44.221Z,12
2017-07-01T13:37:52.334Z,16
2017-07-01T13:39:00.395Z,16
2017-07-01T13:40:08.483Z,16
2017-07-01T13:41:16.578Z,20
2017-07-01T13:42:24.655Z,20
2017-07-01T13:43:32.742Z,24
2017-07-01T13:44:40.830Z,24
2017-07-01T13:45:48.915Z,28
2017-07-01T13:46:57.003Z,24
2017-07-01T13:48:05.091Z,24
2017-07-01T13:49:13.185Z,24
2017-07-01T13:50:21.265Z,20
2017-07-01T13:51:29.350Z,20
2017-07-01T13:52:37.439Z,24
2017-07-01T13:53:45.525Z,20
2017-07-01T13:54:53.611Z,20
2017-07-01T13:56:01.700Z,28
2017-07-01T13:57:09.784Z,28
2017-07-01T13:58:17.872Z,24
2017-07-01T13:59:25.960Z,24
2017-07-01T14:00:34.046Z,24
2017-07-01T14:01:42.132Z,24
2017-07-01T14:02:50.219Z,24
2017-07-01T14:03:58.308Z,24
2017-07-01T14:05:06.395Z,24
2017-07-01T14:06:14.481Z,24
2017-07-01T14:07:22.569Z,20
2017-07-01T14:08:30.655Z,24
2017-07-01T14:09:38.742Z,28
2017-07-01T14:10:46.828Z,24
2017-07-01T14:11:54.915Z,20
2017-07-01T14:13:03.002Z,20
2017-07-01T14:14:11.093Z,20
2017-07-01T14:15:19.178Z,20
2017-07-01T14:16:27.264Z,16
2017-07-01T14:17:35.353Z,20
2017-07-01T14:18:43.440Z,16
2017-07-01T14:19:51.526Z,12
2017-07-01T14:20:59.611Z,16
2017-07-01T14:22:07.700Z,16
2017-07-01T14:23:15.786Z,16
2017-07-01T14:24:23.874Z,12
2017-07-01T14:25:31.959Z,12
2017-07-01T14:26:40.047Z,12
2017-07-01T14:27:48.134Z,16
2017-07-01T14:28:56.228Z,16
2017-07-01T14:30:04.316Z,16
2017-07-01T14:31:12.421Z,16
2017-07-01T14:32:20.491Z,16
2017-07-01T14:33:28.578Z,16
2017-07-01T14:34:36.663Z,20
2017-07-01T14:35:44.751Z,24
2017-07-01T14:36:52.838Z,24
2017-07-01T14:38:00.926Z,24
2017-07-01T14:39:09.034Z,24
2017-07-01T14:40:17.099Z,16
2017-07-01T14:41:25.186Z,16
2017-07-01T14:42:33.274Z,16
2017-07-01T14:43:41.362Z,16
2017-07-01T14:44:49.448Z,16
2017-07-01T14:45:57.563Z,20
2017-07-01T14:47:05.623Z,20
2017-07-01T14:48:13.711Z,24
2017-07-01T14:49:21.796Z,20
2017-07-01T14:50:29.881Z,20
2017-07-01T14:51:37.968Z,20
2017-07-01T14:52:46.053Z,20
2017-07-01T14:53:54.142Z,20
2017-07-01T14:55:02.229Z,20
2017-07-01T14:56:10.414Z,16
2017-07-01T14:57:18.402Z,20
2017-07-01T14:58:26.514Z,20
2017-07-01T14:59:34.574Z,20
2017-07-01T15:00:42.659Z,20
2017-07-01T15:01:50.747Z,20
2017-07-01T15:02:58.835Z,20
2017-07-01T15:04:06.921Z,20
2017-07-01T15:05:15.009Z,24
2017-07-01T15:06:23.097Z,20
2017-07-01T15:07:31.182Z,16
2017-07-01T15:08:39.268Z,16
2017-07-01T15:09:47.354Z,12
2017-07-01T15:10:55.442Z,12
2017-07-01T15:12:03.528Z,12
2017-07-01T15:13:11.615Z,12
2017-07-01T15:14:19.702Z,16
2017-07-01T15:15:27.790Z,16
2017-07-01T15:16:35.877Z,16
2017-07-01T15:17:43.961Z,16
2017-07-01T15:18:52.049Z,12
2017-07-01T15:20:00.134Z,16
2017-07-01T15:21:08.221Z,16
2017-07-01T15:22:16.307Z,16
2017-07-01T15:23:24.397Z,20
2017-07-01T15:24:32.484Z,20
2017-07-01T15:25:40.570Z,20
2017-07-01T15:26:48.656Z,16
2017-07-01T15:27:56.751Z,16
2017-07-01T15:29:04.830Z,20
2017-07-01T15:30:12.914Z,16
2017-07-01T15:31:21.005Z,16
2017-07-01T15:32:29.089Z,16
2017-07-01T15:33:37.173Z,12
2017-07-01T15:34:45.261Z,12
2017-07-01T15:35:53.350Z,12
2017-07-01T15:37:01.437Z,20
2017-07-01T15:38:09.523Z,12
2017-07-01T15:39:17.610Z,16
2017-07-01T15:40:25.695Z,16
2017-07-01T15:41:33.781Z,12
2017-07-01T15:42:41.869Z,16
2017-07-01T15:43:49.958Z,12
2017-07-01T15:44:58.044Z,16
2017-07-01T15:46:06.132Z,16
2017-07-01T15:47:14.220Z,16
2017-07-01T15:48:22.303Z,16
2017-07-01T15:49:30.390Z,16
2017-07-01T15:50:38.503Z,16
2017-07-01T15:51:46.565Z,20
2017-07-01T15:52:54.650Z,12
2017-07-01T15:54:02.739Z,12
2017-07-01T15:55:10.827Z,20
2017-07-01T15:56:18.913Z,16
2017-07-01T15:57:27.000Z,12
2017-07-01T15:58:35.086Z,12
2017-07-01T15:59:43.175Z,16
2017-07-01T16:00:51.258Z,20
2017-07-01T16:01:59.349Z,12
2017-07-01T16:03:07.432Z,12
2017-07-01T16:04:15.520Z,12
2017-07-01T16:05:23.608Z,16
2017-07-01T16:06:31.695Z,16
2017-07-01T16:07:39.781Z,12
2017-07-01T16:08:47.867Z,12
2017-07-01T16:09:55.960Z,12
2017-07-01T16:11:04.046Z,12
2017-07-01T16:12:12.133Z,12
2017-07-01T16:13:20.223Z,12
2017-07-01T16:14:28.337Z,12
2017-07-01T16:15:36.397Z,16
2017-07-01T16:16:44.483Z,12
2017-07-01T16:17:52.567Z,12
2017-07-01T16:19:00.655Z,16
2017-07-01T16:20:08.742Z,16
2017-07-01T16:21:16.830Z,16
2017-07-01T16:22:24.921Z,16
2017-07-01T16:23:33.004Z,16
2017-07-01T16:24:41.092Z,12
2017-07-01T16:25:49.180Z,12
2017-07-01T16:26:57.266Z,16
2017-07-01T16:28:05.351Z,12
2017-07-01T16:29:13.437Z,12
2017-07-01T16:30:21.524Z,12
2017-07-01T16:31:29.610Z,12
2017-07-01T16:32:37.699Z,8